sensor_id;sensor_type;location;lat;lon;timestamp;P1;durP1;ratioP1;P2;durP2;ratioP2
63965;SDS011;50151;52.030;5.350;2022-08-23T07:10:20;13.93;;;5.97;;
63965;SDS011;50151;52.030;5.350;2022-08-23T07:12:47;14.30;;;6.25;;
63965;SDS011;50151;52.030;5.350;2022-08-23T07:15:14;14.30;;;7.10;;
63965;SDS011;50151;52.030;5.350;2022-08-23T07:17:41;13.18;;;7.47;;
63965;SDS011;50151;52.030;5.350;2022-08-23T07:20:09;13.15;;;7.53;;
63965;SDS011;50151;52.030;5.350;2022-08-23T07:22:35;13.15;;;7.65;;
63965;SDS011;50151;52.030;5.350;2022-08-23T07:25:02;20.73;;;8.43;;
63965;SDS011;50151;52.030;5.350;2022-08-23T07:27:30;14.43;;;7.72;;
63965;SDS011;50151;52.030;5.350;2022-08-23T07:29:57;15.50;;;7.65;;
63965;SDS011;50151;52.030;5.350;2022-08-23T07:32:24;17.70;;;8.68;;
63965;SDS011;50151;52.030;5.350;2022-08-23T07:34:51;17.17;;;8.27;;
63965;SDS011;50151;52.030;5.350;2022-08-23T07:37:18;14.90;;;8.48;;
63965;SDS011;50151;52.030;5.350;2022-08-23T07:39:45;17.15;;;8.75;;
63965;SDS011;50151;52.030;5.350;2022-08-23T07:42:13;16.67;;;8.73;;
63965;SDS011;50151;52.030;5.350;2022-08-23T07:44:49;14.90;;;8.57;;
63965;SDS011;50151;52.030;5.350;2022-08-23T07:47:17;19.15;;;8.95;;
63965;SDS011;50151;52.030;5.350;2022-08-23T07:49:44;13.82;;;8.85;;
63965;SDS011;50151;52.030;5.350;2022-08-23T07:52:12;15.38;;;9.25;;
63965;SDS011;50151;52.030;5.350;2022-08-23T07:54:39;23.75;;;9.32;;
63965;SDS011;50151;52.030;5.350;2022-08-23T07:57:13;17.13;;;9.15;;
63965;SDS011;50151;52.030;5.350;2022-08-23T07:59:41;18.48;;;10.00;;
63965;SDS011;50151;52.030;5.350;2022-08-23T08:02:07;18.67;;;9.70;;
63965;SDS011;50151;52.030;5.350;2022-08-23T08:04:35;17.85;;;9.93;;
63965;SDS011;50151;52.030;5.350;2022-08-23T08:07:02;22.75;;;9.93;;
63965;SDS011;50151;52.030;5.350;2022-08-23T08:09:45;18.25;;;10.27;;
63965;SDS011;50151;52.030;5.350;2022-08-23T08:12:12;18.42;;;10.50;;
63965;SDS011;50151;52.030;5.350;2022-08-23T08:14:40;23.35;;;9.45;;
63965;SDS011;50151;52.030;5.350;2022-08-23T08:17:07;25.50;;;9.75;;
63965;SDS011;50151;52.030;5.350;2022-08-23T08:19:34;20.10;;;9.10;;
63965;SDS011;50151;52.030;5.350;2022-08-23T08:22:01;18.92;;;9.85;;
63965;SDS011;50151;52.030;5.350;2022-08-23T08:24:28;20.77;;;10.13;;
63965;SDS011;50151;52.030;5.350;2022-08-23T08:26:55;18.55;;;9.13;;
63965;SDS011;50151;52.030;5.350;2022-08-23T08:29:22;19.77;;;8.35;;
63965;SDS011;50151;52.030;5.350;2022-08-23T08:31:50;17.25;;;8.73;;
63965;SDS011;50151;52.030;5.350;2022-08-23T08:34:19;16.85;;;8.48;;
63965;SDS011;50151;52.030;5.350;2022-08-23T08:36:48;17.33;;;8.32;;
63965;SDS011;50151;52.030;5.350;2022-08-23T08:39:29;17.42;;;8.70;;
63965;SDS011;50151;52.030;5.350;2022-08-23T08:47:50;16.45;;;8.52;;
63965;SDS011;50151;52.030;5.350;2022-08-23T08:50:23;15.15;;;8.20;;
63965;SDS011;50151;52.030;5.350;2022-08-23T08:55:38;17.83;;;8.40;;
63965;SDS011;50151;52.030;5.350;2022-08-23T08:58:13;18.10;;;8.10;;
63965;SDS011;50151;52.030;5.350;2022-08-23T09:00:47;15.48;;;8.82;;
63965;SDS011;50151;52.030;5.350;2022-08-23T09:05:51;17.88;;;8.20;;
63965;SDS011;50151;52.030;5.350;2022-08-23T09:08:32;14.27;;;7.93;;
63965;SDS011;50151;52.030;5.350;2022-08-23T09:11:03;17.23;;;7.97;;
63965;SDS011;50151;52.030;5.350;2022-08-23T09:19:32;14.50;;;7.50;;
63965;SDS011;50151;52.030;5.350;2022-08-23T09:22:12;12.27;;;7.03;;
63965;SDS011;50151;52.030;5.350;2022-08-23T09:24:41;14.70;;;7.55;;
63965;SDS011;50151;52.030;5.350;2022-08-23T09:27:09;19.17;;;8.45;;
63965;SDS011;50151;52.030;5.350;2022-08-23T09:29:38;17.10;;;8.20;;
63965;SDS011;50151;52.030;5.350;2022-08-23T09:32:41;15.68;;;8.50;;
63965;SDS011;50151;52.030;5.350;2022-08-23T09:35:17;16.27;;;7.45;;
63965;SDS011;50151;52.030;5.350;2022-08-23T09:38:09;20.58;;;9.05;;
63965;SDS011;50151;52.030;5.350;2022-08-23T09:40:48;18.98;;;8.57;;
63965;SDS011;50151;52.030;5.350;2022-08-23T09:43:20;18.67;;;7.57;;
63965;SDS011;50151;52.030;5.350;2022-08-23T09:45:54;14.85;;;8.95;;
63965;SDS011;50151;52.030;5.350;2022-08-23T09:48:35;14.70;;;8.00;;
63965;SDS011;50151;52.030;5.350;2022-08-23T09:51:24;19.25;;;8.15;;
63965;SDS011;50151;52.030;5.350;2022-08-23T09:57:00;19.45;;;8.57;;
63965;SDS011;50151;52.030;5.350;2022-08-23T09:59:33;17.58;;;7.55;;
63965;SDS011;50151;52.030;5.350;2022-08-23T10:02:00;21.15;;;7.57;;
63965;SDS011;50151;52.030;5.350;2022-08-23T10:04:39;12.77;;;6.55;;
63965;SDS011;50151;52.030;5.350;2022-08-23T10:12:59;18.25;;;6.20;;
63965;SDS011;50151;52.030;5.350;2022-08-23T10:21:12;12.57;;;5.35;;
63965;SDS011;50151;52.030;5.350;2022-08-23T10:26:22;12.40;;;4.70;;
63965;SDS011;50151;52.030;5.350;2022-08-23T10:29:10;14.68;;;5.40;;
63965;SDS011;50151;52.030;5.350;2022-08-23T10:40:14;14.52;;;4.43;;
63965;SDS011;50151;52.030;5.350;2022-08-23T10:50:47;14.35;;;5.22;;
63965;SDS011;50151;52.030;5.350;2022-08-23T10:53:31;15.90;;;5.60;;
63965;SDS011;50151;52.030;5.350;2022-08-23T10:56:12;13.43;;;6.22;;
63965;SDS011;50151;52.030;5.350;2022-08-23T10:58:50;10.65;;;5.05;;
63965;SDS011;50151;52.030;5.350;2022-08-23T11:01:43;16.97;;;6.23;;
63965;SDS011;50151;52.030;5.350;2022-08-23T11:04:26;13.02;;;4.05;;
63965;SDS011;50151;52.030;5.350;2022-08-23T11:06:56;10.90;;;4.22;;
63965;SDS011;50151;52.030;5.350;2022-08-23T11:14:44;7.63;;;3.33;;
63965;SDS011;50151;52.030;5.350;2022-08-23T11:26:05;11.07;;;3.45;;
63965;SDS011;50151;52.030;5.350;2022-08-23T11:28:41;9.82;;;3.72;;
63965;SDS011;50151;52.030;5.350;2022-08-23T11:33:50;9.65;;;3.58;;
63965;SDS011;50151;52.030;5.350;2022-08-23T11:36:28;10.23;;;2.97;;
63965;SDS011;50151;52.030;5.350;2022-08-23T11:41:30;7.30;;;2.60;;
63965;SDS011;50151;52.030;5.350;2022-08-23T11:46:30;6.55;;;2.30;;
63965;SDS011;50151;52.030;5.350;2022-08-23T11:54:46;10.60;;;2.22;;
63965;SDS011;50151;52.030;5.350;2022-08-23T11:57:46;7.85;;;2.58;;
63965;SDS011;50151;52.030;5.350;2022-08-23T12:03:28;7.95;;;2.45;;
63965;SDS011;50151;52.030;5.350;2022-08-23T12:06:34;10.77;;;2.45;;
63965;SDS011;50151;52.030;5.350;2022-08-23T12:14:34;8.88;;;2.10;;
63965;SDS011;50151;52.030;5.350;2022-08-23T12:25:38;7.60;;;2.08;;
63965;SDS011;50151;52.030;5.350;2022-08-23T12:28:23;6.55;;;1.95;;
63965;SDS011;50151;52.030;5.350;2022-08-23T12:31:05;6.30;;;1.60;;
63965;SDS011;50151;52.030;5.350;2022-08-23T12:33:48;6.40;;;1.85;;
63965;SDS011;50151;52.030;5.350;2022-08-23T12:39:02;4.80;;;2.05;;
63965;SDS011;50151;52.030;5.350;2022-08-23T12:42:14;10.95;;;2.50;;
63965;SDS011;50151;52.030;5.350;2022-08-23T12:44:44;13.65;;;2.22;;
63965;SDS011;50151;52.030;5.350;2022-08-23T12:47:23;10.57;;;2.42;;
63965;SDS011;50151;52.030;5.350;2022-08-23T12:52:24;9.82;;;2.20;;
63965;SDS011;50151;52.030;5.350;2022-08-23T12:54:53;9.38;;;2.38;;
63965;SDS011;50151;52.030;5.350;2022-08-23T12:57:29;8.63;;;2.28;;
63965;SDS011;50151;52.030;5.350;2022-08-23T13:05:38;6.78;;;2.30;;
63965;SDS011;50151;52.030;5.350;2022-08-23T13:08:10;8.25;;;2.70;;
63965;SDS011;50151;52.030;5.350;2022-08-23T13:10:59;6.90;;;2.30;;
63965;SDS011;50151;52.030;5.350;2022-08-23T13:13:33;12.25;;;2.40;;
63965;SDS011;50151;52.030;5.350;2022-08-23T13:16:22;12.00;;;2.72;;
63965;SDS011;50151;52.030;5.350;2022-08-23T13:24:40;7.90;;;2.10;;
63965;SDS011;50151;52.030;5.350;2022-08-23T13:27:20;5.35;;;1.80;;
63965;SDS011;50151;52.030;5.350;2022-08-23T13:29:50;7.45;;;2.00;;
63965;SDS011;50151;52.030;5.350;2022-08-23T13:35:28;5.13;;;1.73;;
63965;SDS011;50151;52.030;5.350;2022-08-23T13:40:38;11.87;;;1.80;;
63965;SDS011;50151;52.030;5.350;2022-08-23T13:46:11;5.30;;;1.60;;
63965;SDS011;50151;52.030;5.350;2022-08-23T13:54:18;6.28;;;1.80;;
63965;SDS011;50151;52.030;5.350;2022-08-23T13:56:46;8.38;;;1.73;;
63965;SDS011;50151;52.030;5.350;2022-08-23T14:02:00;7.88;;;1.48;;
63965;SDS011;50151;52.030;5.350;2022-08-23T14:04:33;12.90;;;1.90;;
63965;SDS011;50151;52.030;5.350;2022-08-23T14:07:00;5.20;;;1.60;;
63965;SDS011;50151;52.030;5.350;2022-08-23T14:09:27;5.30;;;1.40;;
63965;SDS011;50151;52.030;5.350;2022-08-23T14:11:54;3.72;;;1.25;;
63965;SDS011;50151;52.030;5.350;2022-08-23T14:14:24;8.57;;;1.50;;
63965;SDS011;50151;52.030;5.350;2022-08-23T14:16:54;3.28;;;1.20;;
63965;SDS011;50151;52.030;5.350;2022-08-23T14:19:27;11.48;;;1.83;;
63965;SDS011;50151;52.030;5.350;2022-08-23T14:22:16;6.57;;;1.50;;
63965;SDS011;50151;52.030;5.350;2022-08-23T14:24:43;8.68;;;1.50;;
63965;SDS011;50151;52.030;5.350;2022-08-23T14:27:10;7.60;;;1.67;;
63965;SDS011;50151;52.030;5.350;2022-08-23T14:29:38;3.75;;;1.10;;
63965;SDS011;50151;52.030;5.350;2022-08-23T14:32:04;4.15;;;1.30;;
63965;SDS011;50151;52.030;5.350;2022-08-23T14:34:31;6.15;;;1.40;;
63965;SDS011;50151;52.030;5.350;2022-08-23T14:36:58;8.70;;;1.40;;
63965;SDS011;50151;52.030;5.350;2022-08-23T14:39:45;4.55;;;1.27;;
63965;SDS011;50151;52.030;5.350;2022-08-23T14:42:13;3.80;;;1.50;;
63965;SDS011;50151;52.030;5.350;2022-08-23T14:44:44;4.38;;;1.30;;
63965;SDS011;50151;52.030;5.350;2022-08-23T14:47:11;3.88;;;1.38;;
63965;SDS011;50151;52.030;5.350;2022-08-23T14:49:38;4.60;;;1.13;;
63965;SDS011;50151;52.030;5.350;2022-08-23T14:52:05;7.80;;;1.42;;
63965;SDS011;50151;52.030;5.350;2022-08-23T14:54:32;3.25;;;1.20;;
63965;SDS011;50151;52.030;5.350;2022-08-23T14:56:59;3.90;;;1.35;;
63965;SDS011;50151;52.030;5.350;2022-08-23T14:59:26;4.50;;;1.45;;
63965;SDS011;50151;52.030;5.350;2022-08-23T15:01:53;7.00;;;1.30;;
63965;SDS011;50151;52.030;5.350;2022-08-23T15:04:21;5.65;;;1.48;;
63965;SDS011;50151;52.030;5.350;2022-08-23T15:06:50;3.88;;;1.30;;
63965;SDS011;50151;52.030;5.350;2022-08-23T15:09:37;4.60;;;1.35;;
63965;SDS011;50151;52.030;5.350;2022-08-23T15:12:04;5.32;;;1.33;;
63965;SDS011;50151;52.030;5.350;2022-08-23T15:14:51;5.13;;;1.20;;
63965;SDS011;50151;52.030;5.350;2022-08-23T15:17:22;6.75;;;1.38;;
63965;SDS011;50151;52.030;5.350;2022-08-23T15:19:55;7.63;;;1.58;;
63965;SDS011;50151;52.030;5.350;2022-08-23T15:22:22;7.55;;;1.77;;
63965;SDS011;50151;52.030;5.350;2022-08-23T15:24:51;9.85;;;1.70;;
63965;SDS011;50151;52.030;5.350;2022-08-23T15:27:18;7.07;;;1.52;;
63965;SDS011;50151;52.030;5.350;2022-08-23T15:29:47;6.75;;;1.60;;
63965;SDS011;50151;52.030;5.350;2022-08-23T15:32:14;4.22;;;1.40;;
63965;SDS011;50151;52.030;5.350;2022-08-23T15:34:47;6.97;;;1.40;;
63965;SDS011;50151;52.030;5.350;2022-08-23T15:37:14;5.88;;;1.40;;
63965;SDS011;50151;52.030;5.350;2022-08-23T15:39:43;5.90;;;1.13;;
63965;SDS011;50151;52.030;5.350;2022-08-23T15:42:10;3.20;;;1.27;;
63965;SDS011;50151;52.030;5.350;2022-08-23T15:44:45;4.75;;;1.27;;
63965;SDS011;50151;52.030;5.350;2022-08-23T15:47:15;4.85;;;1.17;;
63965;SDS011;50151;52.030;5.350;2022-08-23T15:49:51;9.27;;;1.42;;
63965;SDS011;50151;52.030;5.350;2022-08-23T15:52:18;5.13;;;1.23;;
63965;SDS011;50151;52.030;5.350;2022-08-23T15:54:45;4.70;;;1.27;;
63965;SDS011;50151;52.030;5.350;2022-08-23T15:57:16;9.70;;;1.30;;
63965;SDS011;50151;52.030;5.350;2022-08-23T15:59:46;7.32;;;1.80;;
63965;SDS011;50151;52.030;5.350;2022-08-23T16:02:13;4.20;;;1.45;;
63965;SDS011;50151;52.030;5.350;2022-08-23T16:04:41;4.75;;;1.35;;
63965;SDS011;50151;52.030;5.350;2022-08-23T16:07:08;3.58;;;1.30;;
63965;SDS011;50151;52.030;5.350;2022-08-23T16:09:38;2.05;;;1.08;;
63965;SDS011;50151;52.030;5.350;2022-08-23T16:12:06;3.88;;;1.13;;
63965;SDS011;50151;52.030;5.350;2022-08-23T16:14:34;3.63;;;1.30;;
63965;SDS011;50151;52.030;5.350;2022-08-23T16:17:02;4.85;;;1.35;;
63965;SDS011;50151;52.030;5.350;2022-08-23T16:19:30;3.92;;;1.08;;
63965;SDS011;50151;52.030;5.350;2022-08-23T16:21:57;4.78;;;1.52;;
63965;SDS011;50151;52.030;5.350;2022-08-23T16:24:24;7.25;;;1.33;;
63965;SDS011;50151;52.030;5.350;2022-08-23T16:26:53;5.63;;;1.40;;
63965;SDS011;50151;52.030;5.350;2022-08-23T16:29:20;7.88;;;1.50;;
63965;SDS011;50151;52.030;5.350;2022-08-23T16:31:47;5.57;;;1.55;;
63965;SDS011;50151;52.030;5.350;2022-08-23T16:34:17;3.80;;;1.35;;
63965;SDS011;50151;52.030;5.350;2022-08-23T16:36:46;5.68;;;1.30;;
63965;SDS011;50151;52.030;5.350;2022-08-23T16:39:20;6.68;;;1.38;;
63965;SDS011;50151;52.030;5.350;2022-08-23T16:41:47;6.22;;;1.40;;
63965;SDS011;50151;52.030;5.350;2022-08-23T16:44:15;6.13;;;1.40;;
63965;SDS011;50151;52.030;5.350;2022-08-23T16:46:42;3.40;;;1.60;;
63965;SDS011;50151;52.030;5.350;2022-08-23T16:49:11;5.53;;;1.48;;
63965;SDS011;50151;52.030;5.350;2022-08-23T16:51:40;5.07;;;1.60;;
63965;SDS011;50151;52.030;5.350;2022-08-23T16:54:07;8.45;;;1.48;;
63965;SDS011;50151;52.030;5.350;2022-08-23T16:56:36;6.53;;;1.25;;
63965;SDS011;50151;52.030;5.350;2022-08-23T16:59:04;6.90;;;1.40;;
63965;SDS011;50151;52.030;5.350;2022-08-23T17:01:46;4.00;;;1.50;;
63965;SDS011;50151;52.030;5.350;2022-08-23T17:04:14;5.65;;;1.10;;
63965;SDS011;50151;52.030;5.350;2022-08-23T17:06:41;6.18;;;1.40;;
63965;SDS011;50151;52.030;5.350;2022-08-23T17:09:08;3.05;;;1.13;;
63965;SDS011;50151;52.030;5.350;2022-08-23T17:11:35;4.63;;;1.55;;
63965;SDS011;50151;52.030;5.350;2022-08-23T17:14:03;4.50;;;1.50;;
63965;SDS011;50151;52.030;5.350;2022-08-23T17:16:30;4.32;;;1.80;;
63965;SDS011;50151;52.030;5.350;2022-08-23T17:18:58;4.55;;;1.90;;
63965;SDS011;50151;52.030;5.350;2022-08-23T17:21:25;3.25;;;1.63;;
63965;SDS011;50151;52.030;5.350;2022-08-23T17:23:53;3.47;;;1.60;;
63965;SDS011;50151;52.030;5.350;2022-08-23T17:26:20;5.45;;;1.67;;
63965;SDS011;50151;52.030;5.350;2022-08-23T17:28:47;6.45;;;1.45;;
63965;SDS011;50151;52.030;5.350;2022-08-23T17:31:14;3.78;;;1.60;;
63965;SDS011;50151;52.030;5.350;2022-08-23T17:33:42;5.68;;;1.70;;
63965;SDS011;50151;52.030;5.350;2022-08-23T17:36:25;10.48;;;1.75;;
63965;SDS011;50151;52.030;5.350;2022-08-23T17:38:56;5.22;;;1.70;;
63965;SDS011;50151;52.030;5.350;2022-08-23T17:41:24;9.15;;;1.67;;
63965;SDS011;50151;52.030;5.350;2022-08-23T17:43:52;2.45;;;1.33;;
63965;SDS011;50151;52.030;5.350;2022-08-23T17:46:20;9.30;;;1.52;;
63965;SDS011;50151;52.030;5.350;2022-08-23T17:48:48;5.18;;;1.60;;
63965;SDS011;50151;52.030;5.350;2022-08-23T17:51:16;6.68;;;1.80;;
63965;SDS011;50151;52.030;5.350;2022-08-23T17:53:43;6.28;;;1.92;;
63965;SDS011;50151;52.030;5.350;2022-08-23T17:56:14;7.35;;;1.65;;
63965;SDS011;50151;52.030;5.350;2022-08-23T17:58:41;4.38;;;1.70;;
63965;SDS011;50151;52.030;5.350;2022-08-23T18:01:08;5.10;;;1.95;;
63965;SDS011;50151;52.030;5.350;2022-08-23T18:03:36;9.57;;;1.95;;
63965;SDS011;50151;52.030;5.350;2022-08-23T18:06:04;6.13;;;1.80;;
63965;SDS011;50151;52.030;5.350;2022-08-23T18:08:42;7.30;;;2.25;;
63965;SDS011;50151;52.030;5.350;2022-08-23T18:11:11;6.70;;;2.15;;
63965;SDS011;50151;52.030;5.350;2022-08-23T18:13:38;5.90;;;1.88;;
63965;SDS011;50151;52.030;5.350;2022-08-23T18:16:06;7.97;;;2.17;;
63965;SDS011;50151;52.030;5.350;2022-08-23T18:18:33;8.57;;;2.40;;
63965;SDS011;50151;52.030;5.350;2022-08-23T18:21:04;6.63;;;2.30;;
63965;SDS011;50151;52.030;5.350;2022-08-23T18:23:33;5.68;;;1.95;;
63965;SDS011;50151;52.030;5.350;2022-08-23T18:26:10;5.45;;;2.28;;
63965;SDS011;50151;52.030;5.350;2022-08-23T18:28:59;4.78;;;2.05;;
63965;SDS011;50151;52.030;5.350;2022-08-23T18:31:26;7.57;;;2.08;;
63965;SDS011;50151;52.030;5.350;2022-08-23T18:33:53;8.95;;;2.15;;
63965;SDS011;50151;52.030;5.350;2022-08-23T18:36:26;6.82;;;1.90;;
63965;SDS011;50151;52.030;5.350;2022-08-23T18:38:54;7.82;;;2.15;;
63965;SDS011;50151;52.030;5.350;2022-08-23T18:41:21;9.30;;;2.55;;
63965;SDS011;50151;52.030;5.350;2022-08-23T18:43:47;6.53;;;2.10;;
63965;SDS011;50151;52.030;5.350;2022-08-23T18:46:14;8.00;;;2.40;;
63965;SDS011;50151;52.030;5.350;2022-08-23T18:48:41;8.48;;;2.20;;
63965;SDS011;50151;52.030;5.350;2022-08-23T18:51:18;7.45;;;1.90;;
63965;SDS011;50151;52.030;5.350;2022-08-23T18:53:45;7.78;;;2.30;;
63965;SDS011;50151;52.030;5.350;2022-08-23T18:56:12;5.10;;;2.00;;
63965;SDS011;50151;52.030;5.350;2022-08-23T18:58:39;10.30;;;2.42;;
63965;SDS011;50151;52.030;5.350;2022-08-23T19:01:19;10.77;;;2.13;;
63965;SDS011;50151;52.030;5.350;2022-08-23T19:03:52;11.27;;;1.90;;
63965;SDS011;50151;52.030;5.350;2022-08-23T19:06:19;5.10;;;1.95;;
63965;SDS011;50151;52.030;5.350;2022-08-23T19:08:47;6.18;;;1.80;;
63965;SDS011;50151;52.030;5.350;2022-08-23T19:11:14;5.95;;;2.10;;
63965;SDS011;50151;52.030;5.350;2022-08-23T19:13:41;7.85;;;2.00;;
63965;SDS011;50151;52.030;5.350;2022-08-23T19:16:11;4.72;;;1.90;;
63965;SDS011;50151;52.030;5.350;2022-08-23T19:18:41;7.57;;;2.20;;
63965;SDS011;50151;52.030;5.350;2022-08-23T19:21:10;3.80;;;2.08;;
63965;SDS011;50151;52.030;5.350;2022-08-23T19:23:39;7.80;;;2.20;;
63965;SDS011;50151;52.030;5.350;2022-08-23T19:26:10;6.55;;;2.00;;
63965;SDS011;50151;52.030;5.350;2022-08-23T19:28:39;6.00;;;2.38;;
63965;SDS011;50151;52.030;5.350;2022-08-23T19:31:06;5.75;;;2.08;;
63965;SDS011;50151;52.030;5.350;2022-08-23T19:33:33;8.88;;;2.78;;
63965;SDS011;50151;52.030;5.350;2022-08-23T19:36:00;7.32;;;2.63;;
63965;SDS011;50151;52.030;5.350;2022-08-23T19:38:28;5.10;;;2.33;;
63965;SDS011;50151;52.030;5.350;2022-08-23T19:40:58;7.40;;;2.75;;
63965;SDS011;50151;52.030;5.350;2022-08-23T19:43:27;6.47;;;2.20;;
63965;SDS011;50151;52.030;5.350;2022-08-23T19:45:56;6.90;;;2.67;;
63965;SDS011;50151;52.030;5.350;2022-08-23T19:48:23;7.35;;;2.60;;
63965;SDS011;50151;52.030;5.350;2022-08-23T19:50:50;7.13;;;2.90;;
63965;SDS011;50151;52.030;5.350;2022-08-23T19:53:17;12.75;;;3.10;;
63965;SDS011;50151;52.030;5.350;2022-08-23T19:55:44;10.45;;;3.25;;
63965;SDS011;50151;52.030;5.350;2022-08-23T19:58:12;7.80;;;3.05;;
63965;SDS011;50151;52.030;5.350;2022-08-23T20:00:39;7.35;;;3.25;;
63965;SDS011;50151;52.030;5.350;2022-08-23T20:03:08;10.68;;;3.67;;
63965;SDS011;50151;52.030;5.350;2022-08-23T20:05:35;8.07;;;3.30;;
63965;SDS011;50151;52.030;5.350;2022-08-23T20:08:02;9.55;;;3.10;;
63965;SDS011;50151;52.030;5.350;2022-08-23T20:10:29;7.30;;;3.10;;
63965;SDS011;50151;52.030;5.350;2022-08-23T20:12:56;11.45;;;3.72;;
63965;SDS011;50151;52.030;5.350;2022-08-23T20:15:24;8.23;;;3.50;;
63965;SDS011;50151;52.030;5.350;2022-08-23T20:17:51;12.15;;;3.55;;
63965;SDS011;50151;52.030;5.350;2022-08-23T20:20:18;9.23;;;2.90;;
63965;SDS011;50151;52.030;5.350;2022-08-23T20:22:45;8.10;;;2.70;;
63965;SDS011;50151;52.030;5.350;2022-08-23T20:25:31;9.10;;;3.08;;
63965;SDS011;50151;52.030;5.350;2022-08-23T20:27:58;8.15;;;3.35;;
63965;SDS011;50151;52.030;5.350;2022-08-23T20:30:25;8.18;;;3.53;;
63965;SDS011;50151;52.030;5.350;2022-08-23T20:32:51;7.97;;;3.25;;
63965;SDS011;50151;52.030;5.350;2022-08-23T20:35:18;9.30;;;2.80;;
63965;SDS011;50151;52.030;5.350;2022-08-23T20:37:45;7.82;;;2.85;;
63965;SDS011;50151;52.030;5.350;2022-08-23T20:40:11;7.05;;;2.88;;
63965;SDS011;50151;52.030;5.350;2022-08-23T20:42:39;11.38;;;3.58;;
63965;SDS011;50151;52.030;5.350;2022-08-23T20:45:06;10.60;;;3.65;;
63965;SDS011;50151;52.030;5.350;2022-08-23T20:47:33;6.35;;;2.65;;
63965;SDS011;50151;52.030;5.350;2022-08-23T20:50:01;8.15;;;2.90;;
63965;SDS011;50151;52.030;5.350;2022-08-23T20:52:28;6.00;;;2.70;;
63965;SDS011;50151;52.030;5.350;2022-08-23T20:54:59;9.90;;;3.30;;
63965;SDS011;50151;52.030;5.350;2022-08-23T20:57:26;8.00;;;3.47;;
63965;SDS011;50151;52.030;5.350;2022-08-23T20:59:57;7.50;;;2.92;;
63965;SDS011;50151;52.030;5.350;2022-08-23T21:02:23;11.48;;;2.95;;
63965;SDS011;50151;52.030;5.350;2022-08-23T21:04:50;6.82;;;2.85;;
63965;SDS011;50151;52.030;5.350;2022-08-23T21:07:17;11.07;;;3.03;;
63965;SDS011;50151;52.030;5.350;2022-08-23T21:09:44;5.15;;;2.75;;
63965;SDS011;50151;52.030;5.350;2022-08-23T21:12:10;6.00;;;2.58;;
63965;SDS011;50151;52.030;5.350;2022-08-23T21:14:38;9.68;;;2.75;;
63965;SDS011;50151;52.030;5.350;2022-08-23T21:17:05;10.77;;;2.70;;
63965;SDS011;50151;52.030;5.350;2022-08-23T21:19:32;4.78;;;2.67;;
63965;SDS011;50151;52.030;5.350;2022-08-23T21:21:59;5.82;;;2.67;;
63965;SDS011;50151;52.030;5.350;2022-08-23T21:24:26;5.53;;;2.58;;
63965;SDS011;50151;52.030;5.350;2022-08-23T21:26:52;5.93;;;3.00;;
63965;SDS011;50151;52.030;5.350;2022-08-23T21:29:19;7.88;;;2.83;;
63965;SDS011;50151;52.030;5.350;2022-08-23T21:31:46;7.93;;;3.17;;
63965;SDS011;50151;52.030;5.350;2022-08-23T21:34:13;19.65;;;3.10;;
63965;SDS011;50151;52.030;5.350;2022-08-23T21:36:40;7.45;;;3.00;;
63965;SDS011;50151;52.030;5.350;2022-08-23T21:39:07;6.53;;;2.95;;
63965;SDS011;50151;52.030;5.350;2022-08-23T21:41:38;8.65;;;3.00;;
63965;SDS011;50151;52.030;5.350;2022-08-23T21:44:08;4.85;;;2.92;;
63965;SDS011;50151;52.030;5.350;2022-08-23T21:46:37;7.55;;;2.78;;
63965;SDS011;50151;52.030;5.350;2022-08-23T21:49:04;8.70;;;3.00;;
63965;SDS011;50151;52.030;5.350;2022-08-23T21:51:32;5.57;;;2.80;;
63965;SDS011;50151;52.030;5.350;2022-08-23T21:54:00;6.28;;;2.90;;
63965;SDS011;50151;52.030;5.350;2022-08-23T21:56:27;7.28;;;2.80;;
63965;SDS011;50151;52.030;5.350;2022-08-23T21:58:58;9.02;;;2.60;;
63965;SDS011;50151;52.030;5.350;2022-08-23T22:01:26;8.48;;;2.88;;
63965;SDS011;50151;52.030;5.350;2022-08-23T22:03:55;5.32;;;3.58;;
63965;SDS011;50151;52.030;5.350;2022-08-23T22:06:22;7.25;;;3.75;;
63965;SDS011;50151;52.030;5.350;2022-08-23T22:08:49;11.77;;;3.25;;
63965;SDS011;50151;52.030;5.350;2022-08-23T22:11:16;7.70;;;2.95;;
63965;SDS011;50151;52.030;5.350;2022-08-23T22:13:42;7.63;;;3.20;;
63965;SDS011;50151;52.030;5.350;2022-08-23T22:18:46;5.82;;;3.03;;
63965;SDS011;50151;52.030;5.350;2022-08-23T22:21:13;7.55;;;3.10;;
63965;SDS011;50151;52.030;5.350;2022-08-23T22:23:40;8.10;;;3.33;;
63965;SDS011;50151;52.030;5.350;2022-08-23T22:26:09;7.93;;;3.40;;
63965;SDS011;50151;52.030;5.350;2022-08-23T22:28:38;5.13;;;2.90;;
63965;SDS011;50151;52.030;5.350;2022-08-23T22:31:09;5.78;;;3.65;;
63965;SDS011;50151;52.030;5.350;2022-08-23T22:33:38;11.82;;;3.50;;
63965;SDS011;50151;52.030;5.350;2022-08-23T22:36:07;7.68;;;3.75;;
63965;SDS011;50151;52.030;5.350;2022-08-23T22:38:36;9.13;;;3.90;;
63965;SDS011;50151;52.030;5.350;2022-08-23T22:41:04;6.68;;;4.22;;
63965;SDS011;50151;52.030;5.350;2022-08-23T22:43:31;8.23;;;4.60;;
63965;SDS011;50151;52.030;5.350;2022-08-23T22:45:58;7.75;;;3.75;;
63965;SDS011;50151;52.030;5.350;2022-08-23T22:48:27;8.32;;;3.80;;
63965;SDS011;50151;52.030;5.350;2022-08-23T22:51:29;10.20;;;3.97;;
63965;SDS011;50151;52.030;5.350;2022-08-23T22:53:51;9.25;;;4.25;;
63965;SDS011;50151;52.030;5.350;2022-08-23T22:56:26;7.50;;;4.38;;
63965;SDS011;50151;52.030;5.350;2022-08-23T22:58:55;13.02;;;4.90;;
63965;SDS011;50151;52.030;5.350;2022-08-23T23:01:24;8.00;;;4.53;;
63965;SDS011;50151;52.030;5.350;2022-08-23T23:03:53;9.77;;;4.10;;
63965;SDS011;50151;52.030;5.350;2022-08-23T23:06:21;5.82;;;3.90;;
63965;SDS011;50151;52.030;5.350;2022-08-23T23:08:48;6.55;;;3.88;;
63965;SDS011;50151;52.030;5.350;2022-08-23T23:11:16;7.60;;;3.85;;
63965;SDS011;50151;52.030;5.350;2022-08-23T23:13:44;9.70;;;4.05;;
63965;SDS011;50151;52.030;5.350;2022-08-23T23:16:22;6.53;;;4.15;;
63965;SDS011;50151;52.030;5.350;2022-08-23T23:18:50;8.02;;;3.85;;
63965;SDS011;50151;52.030;5.350;2022-08-23T23:21:37;7.72;;;3.60;;
63965;SDS011;50151;52.030;5.350;2022-08-23T23:24:07;7.38;;;4.05;;
63965;SDS011;50151;52.030;5.350;2022-08-23T23:26:35;6.45;;;3.30;;
63965;SDS011;50151;52.030;5.350;2022-08-23T23:29:03;4.32;;;3.17;;
63965;SDS011;50151;52.030;5.350;2022-08-23T23:31:30;7.72;;;3.65;;
63965;SDS011;50151;52.030;5.350;2022-08-23T23:33:57;8.82;;;3.70;;
63965;SDS011;50151;52.030;5.350;2022-08-23T23:36:23;6.28;;;3.40;;
63965;SDS011;50151;52.030;5.350;2022-08-23T23:38:50;4.85;;;3.20;;
63965;SDS011;50151;52.030;5.350;2022-08-23T23:41:17;5.85;;;3.60;;
63965;SDS011;50151;52.030;5.350;2022-08-23T23:43:45;5.25;;;2.90;;
63965;SDS011;50151;52.030;5.350;2022-08-23T23:46:13;4.63;;;2.97;;
63965;SDS011;50151;52.030;5.350;2022-08-23T23:48:43;8.40;;;3.13;;
63965;SDS011;50151;52.030;5.350;2022-08-23T23:51:12;8.63;;;3.20;;
63965;SDS011;50151;52.030;5.350;2022-08-23T23:53:45;7.97;;;3.15;;
63965;SDS011;50151;52.030;5.350;2022-08-23T23:56:12;6.90;;;3.55;;
63965;SDS011;50151;52.030;5.350;2022-08-23T23:58:40;4.40;;;2.92;;
